Time;durP1;ratioP1;P1;durP2;ratioP2;P2;SDS_P1;SDS_P2;PMS_P1;PMS_P2;Temp;Humidity;BMP_temperature;BMP_pressure;BME280_temperature;BME280_humidity;BME280_pressure;Samples;Min_cycle;Max_cycle;Signal;HPM_P1;HPM_P2
2021/01/04 00:02:21;;;;;;;20.05;14.02;;;2.20;90.80;;;;;;5031476;28;20063;-60
2021/01/04 00:05:03;;;;;;;19.23;14.25;;;2.10;91.00;;;;;;5030661;28;20506;-61
2021/01/04 00:07:38;;;;;;;19.65;14.60;;;2.10;91.10;;;;;;5043584;28;20069;-59
2021/01/04 00:10:16;;;;;;;22.20;14.65;;;2.00;91.10;;;;;;5039467;28;20033;-61
2021/01/04 00:12:56;;;;;;;21.67;14.15;;;2.10;91.20;;;;;;5031262;28;20487;-61
2021/01/04 00:15:42;;;;;;;21.45;13.43;;;2.10;91.20;;;;;;5043890;28;20072;-62
2021/01/04 00:18:35;;;;;;;19.58;13.80;;;2.10;91.10;;;;;;5050890;28;20032;-61
2021/01/04 00:21:15;;;;;;;21.73;14.50;;;2.00;91.30;;;;;;5031486;28;20029;-62
2021/01/04 00:24:06;;;;;;;20.63;13.93;;;1.90;91.40;;;;;;5029107;28;20073;-61
2021/01/04 00:26:59;;;;;;;20.70;15.40;;;2.00;91.30;;;;;;5011408;28;20495;-60
2021/01/04 00:29:24;;;;;;;23.27;14.48;;;2.00;91.20;;;;;;5021760;28;20480;-62
2021/01/04 00:31:57;;;;;;;21.33;14.60;;;2.10;91.30;;;;;;5050716;28;20170;-61
2021/01/04 00:34:30;;;;;;;24.23;14.82;;;2.00;91.20;;;;;;5044127;28;20512;-61
2021/01/04 00:37:29;;;;;;;23.65;14.43;;;2.00;91.40;;;;;;5029236;28;20421;-62
2021/01/04 00:40:03;;;;;;;28.27;17.73;;;2.00;91.40;;;;;;5010274;28;20040;-63
2021/01/04 00:42:29;;;;;;;30.52;18.15;;;2.00;91.50;;;;;;5014014;28;20032;-62
2021/01/04 00:45:14;;;;;;;24.10;15.40;;;2.00;91.60;;;;;;5030179;28;20037;-60
2021/01/04 00:47:58;;;;;;;35.95;19.13;;;1.90;91.60;;;;;;5031404;28;20484;-62
2021/01/04 00:50:48;;;;;;;31.48;17.13;;;2.00;91.60;;;;;;5030313;28;20079;-62
2021/01/04 00:53:34;;;;;;;28.52;16.75;;;2.00;91.90;;;;;;5042706;28;20036;-62
2021/01/04 00:56:21;;;;;;;29.45;17.42;;;2.10;91.60;;;;;;5054285;28;20036;-62
2021/01/04 00:59:03;;;;;;;26.42;16.38;;;2.10;91.30;;;;;;5038890;28;20065;-61
2021/01/04 01:01:45;;;;;;;29.83;17.17;;;2.10;91.10;;;;;;5035179;28;20175;-62
2021/01/04 01:04:49;;;;;;;29.15;18.23;;;1.90;91.60;;;;;;5035027;28;20450;-61
2021/01/04 01:08:02;;;;;;;28.90;17.65;;;1.90;91.40;;;;;;5037250;28;20435;-62
2021/01/04 01:10:30;;;;;;;29.88;17.15;;;1.90;91.70;;;;;;5054147;28;20033;-55
2021/01/04 01:13:03;;;;;;;28.83;16.98;;;1.80;91.80;;;;;;5047326;28;20037;-57
2021/01/04 01:15:37;;;;;;;31.10;18.33;;;1.70;91.90;;;;;;5033528;28;20035;-60
2021/01/04 01:18:16;;;;;;;30.98;18.25;;;1.70;92.10;;;;;;5036203;28;20447;-56
2021/01/04 01:20:51;;;;;;;29.92;17.50;;;1.80;92.20;;;;;;5034919;28;20037;-54
2021/01/04 01:23:18;;;;;;;30.75;18.20;;;1.70;92.10;;;;;;5044082;28;20083;-60
2021/01/04 01:25:49;;;;;;;32.70;19.13;;;1.70;92.00;;;;;;5034476;28;20037;-57
2021/01/04 01:28:23;;;;;;;26.38;16.58;;;1.70;92.00;;;;;;5043054;28;20051;-54
2021/01/04 01:31:31;;;;;;;31.30;17.80;;;1.80;92.00;;;;;;5054699;28;20028;-58
2021/01/04 01:34:18;;;;;;;28.70;18.70;;;1.80;91.90;;;;;;5052562;28;20043;-59
2021/01/04 01:37:02;;;;;;;27.77;16.63;;;1.90;91.70;;;;;;5054541;28;20021;-58
2021/01/04 01:39:53;;;;;;;30.45;17.83;;;1.90;91.70;;;;;;5036873;28;20036;-57
2021/01/04 01:42:55;;;;;;;29.02;17.63;;;1.80;91.80;;;;;;5034668;28;20036;-56
2021/01/04 01:45:38;;;;;;;28.30;17.67;;;1.80;91.80;;;;;;5014042;28;20061;-55
2021/01/04 01:48:43;;;;;;;28.00;16.27;;;1.80;91.90;;;;;;5019617;28;20124;-52
2021/01/04 01:51:22;;;;;;;29.25;18.02;;;1.80;91.80;;;;;;5002829;28;20539;-55
2021/01/04 01:54:15;;;;;;;25.58;17.30;;;1.80;91.90;;;;;;5044016;28;20033;-53
2021/01/04 01:57:18;;;;;;;28.98;17.27;;;1.90;91.70;;;;;;5054113;28;20029;-57
2021/01/04 02:00:08;;;;;;;27.10;17.05;;;1.80;91.60;;;;;;5036280;28;20099;-57
2021/01/04 02:03:03;;;;;;;30.17;19.10;;;1.80;91.70;;;;;;5029469;28;20135;-58
2021/01/04 02:05:45;;;;;;;30.33;19.07;;;1.80;91.70;;;;;;5012195;28;20048;-58
2021/01/04 02:08:16;;;;;;;32.15;19.05;;;1.90;91.50;;;;;;5018873;28;20078;-56
2021/01/04 02:10:50;;;;;;;34.35;19.98;;;2.00;91.60;;;;;;5033508;28;20120;-58
2021/01/04 02:13:42;;;;;;;28.63;19.27;;;1.90;91.50;;;;;;5036698;28;20033;-60
2021/01/04 02:16:13;;;;;;;33.65;19.52;;;1.90;91.60;;;;;;5013879;28;20418;-59
2021/01/04 02:18:49;;;;;;;31.52;19.98;;;2.00;91.60;;;;;;5024954;28;20036;-54
2021/01/04 02:21:49;;;;;;;33.65;21.48;;;2.00;91.20;;;;;;5053362;28;20133;-54
2021/01/04 02:24:20;;;;;;;31.25;19.98;;;2.00;91.40;;;;;;5044955;28;20476;-57
2021/01/04 02:27:09;;;;;;;29.10;18.80;;;1.90;91.50;;;;;;5033652;28;20033;-56
2021/01/04 02:29:35;;;;;;;34.90;20.52;;;1.90;91.60;;;;;;5046130;28;20454;-57
2021/01/04 02:32:05;;;;;;;32.33;19.75;;;1.90;91.60;;;;;;5053495;28;20029;-59
2021/01/04 02:34:35;;;;;;;29.85;18.45;;;1.90;91.60;;;;;;5041594;28;20395;-58
2021/01/04 02:37:02;;;;;;;30.40;19.55;;;1.90;91.50;;;;;;5043953;28;20040;-61
2021/01/04 02:39:39;;;;;;;33.03;20.45;;;1.90;91.50;;;;;;5064134;28;20032;-62
2021/01/04 02:42:10;;;;;;;30.33;18.98;;;1.90;91.50;;;;;;5053357;28;20109;-60
2021/01/04 02:44:37;;;;;;;34.22;19.80;;;2.00;91.20;;;;;;5064661;28;20043;-60
2021/01/04 02:47:45;;;;;;;33.17;21.38;;;2.00;91.20;;;;;;5073496;28;20036;-60
2021/01/04 02:50:20;;;;;;;37.05;21.63;;;2.00;91.00;;;;;;5064992;28;20037;-60
2021/01/04 02:53:24;;;;;;;29.30;18.85;;;1.90;91.30;;;;;;5072120;28;20426;-61
2021/01/04 02:55:58;;;;;;;28.20;17.98;;;2.00;91.50;;;;;;5053116;28;20044;-59
2021/01/04 02:58:44;;;;;;;28.48;17.80;;;2.00;91.20;;;;;;5053883;28;20025;-60
2021/01/04 03:01:39;;;;;;;27.02;17.48;;;1.90;91.30;;;;;;5055193;28;20041;-61
2021/01/04 03:04:07;;;;;;;28.83;17.67;;;2.00;91.20;;;;;;5057095;28;20024;-60
2021/01/04 03:07:00;;;;;;;28.30;17.85;;;1.90;91.20;;;;;;5071605;28;20068;-60
2021/01/04 03:09:31;;;;;;;28.35;17.83;;;2.00;91.30;;;;;;5065323;28;20029;-59
2021/01/04 03:11:58;;;;;;;27.85;18.27;;;2.00;91.10;;;;;;5052652;28;20068;-59
2021/01/04 03:14:51;;;;;;;29.05;17.77;;;2.00;91.30;;;;;;5051997;28;20024;-60
2021/01/04 03:17:47;;;;;;;24.58;16.63;;;2.00;91.30;;;;;;5052554;28;20396;-58
2021/01/04 03:20:17;;;;;;;24.48;16.52;;;2.10;90.90;;;;;;5065008;28;20384;-61
2021/01/04 03:22:47;;;;;;;25.27;16.77;;;1.90;91.20;;;;;;5072717;28;20047;-58
2021/01/04 03:25:20;;;;;;;22.52;16.02;;;2.00;91.60;;;;;;5068303;28;20040;-59
2021/01/04 03:27:46;;;;;;;27.65;16.85;;;2.00;91.00;;;;;;5072519;28;20071;-58
2021/01/04 03:30:13;;;;;;;26.67;17.88;;;1.90;91.10;;;;;;5070410;28;20060;-61
2021/01/04 03:32:39;;;;;;;27.77;16.60;;;1.90;91.20;;;;;;5071526;28;20035;-60
2021/01/04 03:35:07;;;;;;;26.25;17.45;;;2.00;91.20;;;;;;5060851;28;20144;-60
2021/01/04 03:37:32;;;;;;;25.92;17.67;;;1.90;91.10;;;;;;5051884;28;20029;-61
2021/01/04 03:39:58;;;;;;;22.50;16.38;;;2.00;91.20;;;;;;5060135;28;20410;-61
2021/01/04 03:42:23;;;;;;;26.92;18.48;;;2.00;91.10;;;;;;5072725;28;20079;-59
2021/01/04 03:44:49;;;;;;;24.00;17.05;;;1.90;91.20;;;;;;5071391;28;20040;-60
2021/01/04 03:47:15;;;;;;;26.15;16.85;;;1.90;91.40;;;;;;5072970;28;20036;-62
2021/01/04 03:49:41;;;;;;;24.08;16.63;;;1.90;91.20;;;;;;5059500;28;20024;-59
2021/01/04 03:52:06;;;;;;;26.13;17.35;;;2.00;91.10;;;;;;5072745;28;20033;-58
2021/01/04 03:54:32;;;;;;;24.15;16.50;;;2.00;91.00;;;;;;5068952;28;20394;-61
2021/01/04 03:56:57;;;;;;;25.27;16.50;;;2.00;90.90;;;;;;5052124;28;20380;-61
2021/01/04 03:59:23;;;;;;;25.80;17.80;;;2.00;91.10;;;;;;5053658;28;20634;-57
2021/01/04 04:01:53;;;;;;;24.67;16.40;;;2.00;91.00;;;;;;5068120;28;20495;-58
2021/01/04 04:04:20;;;;;;;28.67;18.20;;;1.90;91.10;;;;;;5052187;28;20017;-60
2021/01/04 04:06:45;;;;;;;24.88;16.75;;;1.90;91.20;;;;;;5069838;28;20083;-58
2021/01/04 04:09:13;;;;;;;27.92;18.92;;;2.00;91.30;;;;;;5072049;28;20037;-60
2021/01/04 04:11:39;;;;;;;26.10;17.23;;;2.10;91.40;;;;;;5051826;28;20047;-61
2021/01/04 04:14:05;;;;;;;26.42;16.83;;;2.10;91.10;;;;;;5052035;28;20029;-59
2021/01/04 04:16:31;;;;;;;29.08;18.63;;;2.10;90.90;;;;;;5068877;28;20511;-59
2021/01/04 04:18:57;;;;;;;29.80;19.05;;;2.10;90.80;;;;;;5071665;28;20029;-59
2021/01/04 04:21:23;;;;;;;29.08;18.25;;;2.00;90.90;;;;;;5070128;28;20040;-60
2021/01/04 04:23:48;;;;;;;25.55;17.75;;;2.00;91.00;;;;;;5071838;28;20036;-58
2021/01/04 04:26:19;;;;;;;26.45;18.52;;;2.00;90.90;;;;;;5057762;28;20037;-56
2021/01/04 04:28:45;;;;;;;25.33;16.60;;;2.00;91.10;;;;;;5051519;28;20120;-56
2021/01/04 04:31:13;;;;;;;28.00;18.10;;;2.00;91.00;;;;;;5063831;28;20128;-61
2021/01/04 04:33:40;;;;;;;27.98;16.55;;;2.00;91.00;;;;;;5072240;28;20036;-60
2021/01/04 04:36:06;;;;;;;27.48;17.83;;;2.00;91.00;;;;;;5072373;28;20499;-58
2021/01/04 04:38:32;;;;;;;23.30;16.20;;;2.10;90.90;;;;;;5070475;28;20154;-58
2021/01/04 04:40:57;;;;;;;26.30;17.08;;;2.10;91.00;;;;;;5061195;28;20116;-58
2021/01/04 04:43:26;;;;;;;27.27;17.38;;;2.20;90.80;;;;;;5051615;28;20040;-58
2021/01/04 04:45:52;;;;;;;30.38;18.33;;;2.20;90.80;;;;;;5059592;28;20036;-55
2021/01/04 04:48:55;;;;;;;23.48;16.58;;;2.10;90.80;;;;;;5065657;28;20079;-61
2021/01/04 04:51:40;;;;;;;25.35;15.85;;;2.10;90.80;;;;;;5063424;28;20170;-61
2021/01/04 04:54:32;;;;;;;25.50;16.73;;;2.00;91.10;;;;;;5071484;28;20079;-60
2021/01/04 04:57:34;;;;;;;25.27;16.90;;;2.00;91.10;;;;;;5055356;28;20039;-61
2021/01/04 05:00:25;;;;;;;25.75;16.05;;;2.00;91.20;;;;;;5051723;28;20025;-62
2021/01/04 05:02:53;;;;;;;25.13;16.70;;;2.10;91.00;;;;;;5038635;28;20455;-63
2021/01/04 05:05:30;;;;;;;25.45;15.80;;;2.00;91.10;;;;;;5052492;28;20035;-64
2021/01/04 05:08:12;;;;;;;25.30;16.13;;;2.10;91.00;;;;;;5071606;28;20033;-62
2021/01/04 05:10:41;;;;;;;25.35;16.35;;;2.10;91.00;;;;;;5069413;28;20021;-62
2021/01/04 05:13:27;;;;;;;25.17;16.65;;;2.00;91.10;;;;;;5071225;28;20037;-63
2021/01/04 05:16:07;;;;;;;24.45;16.42;;;2.10;90.90;;;;;;5065659;28;20033;-63
2021/01/04 05:18:56;;;;;;;22.25;15.43;;;1.90;91.10;;;;;;5051372;28;20040;-63
2021/01/04 05:21:25;;;;;;;23.65;15.52;;;1.90;91.30;;;;;;5059516;28;20036;-62
2021/01/04 05:24:32;;;;;;;23.13;15.88;;;2.00;91.00;;;;;;5071168;28;20032;-62
2021/01/04 05:27:07;;;;;;;25.60;16.33;;;2.00;91.00;;;;;;5069451;28;20033;-62
2021/01/04 05:29:32;;;;;;;;;;;1.90;91.20;;;;;;5071682;28;20035;-63
2021/01/04 05:32:22;;;;;;;25.05;15.93;;;1.90;91.20;;;;;;5058227;28;20007;-61
2021/01/04 05:34:55;;;;;;;25.48;15.20;;;1.90;91.10;;;;;;5050791;28;20087;-63
2021/01/04 05:37:55;;;;;;;28.17;16.55;;;1.90;91.50;;;;;;5066175;28;20039;-63
2021/01/04 05:40:42;;;;;;;22.55;16.17;;;1.90;91.30;;;;;;5071093;28;20055;-63
2021/01/04 05:43:08;;;;;;;26.98;15.68;;;2.10;91.00;;;;;;5033934;28;20478;-62
2021/01/04 05:45:44;;;;;;;24.52;16.30;;;2.00;91.00;;;;;;5034665;28;20109;-63
2021/01/04 05:48:39;;;;;;;22.38;15.40;;;2.10;91.10;;;;;;5040065;28;20130;-63
2021/01/04 05:51:23;;;;;;;25.05;16.15;;;2.20;90.80;;;;;;5047883;28;20112;-63
2021/01/04 05:53:50;;;;;;;24.15;16.73;;;2.10;90.90;;;;;;5053294;28;20044;-63
2021/01/04 05:56:24;;;;;;;24.45;15.68;;;2.10;90.90;;;;;;5058529;28;20487;-63
2021/01/04 05:58:51;;;;;;;24.73;16.08;;;2.10;91.20;;;;;;5073199;28;20060;-64
2021/01/04 06:01:24;;;;;;;21.75;15.82;;;2.20;90.80;;;;;;5072933;28;20058;-62
2021/01/04 06:04:01;;;;;;;21.20;15.57;;;2.20;90.50;;;;;;5058762;28;20028;-64
2021/01/04 06:06:29;;;;;;;26.35;17.65;;;2.30;90.30;;;;;;5058809;28;20071;-64
2021/01/04 06:09:05;;;;;;;22.30;16.98;;;2.10;90.60;;;;;;5074061;28;20028;-61
2021/01/04 06:11:30;;;;;;;25.48;15.68;;;2.20;90.80;;;;;;5069665;28;20041;-64
2021/01/04 06:14:03;;;;;;;22.17;16.83;;;2.10;90.60;;;;;;5053982;28;20037;-63
2021/01/04 06:16:28;;;;;;;27.38;16.52;;;2.20;90.70;;;;;;5055366;28;20032;-63
2021/01/04 06:19:04;;;;;;;27.38;17.48;;;2.20;90.60;;;;;;5054134;28;20047;-63
2021/01/04 06:21:38;;;;;;;23.60;16.42;;;2.20;90.60;;;;;;5056193;28;20115;-59
2021/01/04 06:24:05;;;;;;;;;;;2.20;90.80;;;;;;5074407;28;20403;-58
2021/01/04 06:26:30;;;;;;;23.95;15.27;;;2.10;90.60;;;;;;5071182;28;19913;-61
2021/01/04 06:29:03;;;;;;;24.65;15.55;;;2.20;90.70;;;;;;5053967;28;20124;-56
2021/01/04 06:31:43;;;;;;;29.85;17.10;;;2.20;90.40;;;;;;5054668;28;20104;-58
2021/01/04 06:34:29;;;;;;;25.85;17.02;;;2.20;90.50;;;;;;5074007;28;20391;-56
2021/01/04 06:37:18;;;;;;;28.48;17.13;;;2.20;90.80;;;;;;5068389;28;20114;-58
2021/01/04 06:40:00;;;;;;;23.48;16.02;;;2.20;90.90;;;;;;5053695;28;20029;-61
2021/01/04 06:42:26;;;;;;;26.55;16.73;;;2.10;90.90;;;;;;5062433;28;20040;-61
2021/01/04 06:45:13;;;;;;;25.50;15.90;;;2.10;91.00;;;;;;5073559;28;20135;-60
2021/01/04 06:47:45;;;;;;;26.80;16.65;;;2.10;91.00;;;;;;5063348;28;20036;-58
2021/01/04 06:50:19;;;;;;;24.40;16.27;;;2.20;90.90;;;;;;5053650;28;20037;-61
2021/01/04 06:53:09;;;;;;;45.80;27.92;;;2.20;90.50;;;;;;5062263;28;20044;-60
2021/01/04 06:56:02;;;;;;;27.25;17.48;;;2.20;90.70;;;;;;5073465;28;20115;-58
2021/01/04 06:58:49;;;;;;;27.38;17.58;;;2.10;90.80;;;;;;5057112;28;20614;-57
2021/01/04 07:01:24;;;;;;;27.33;17.60;;;2.20;90.90;;;;;;5053964;28;20041;-57
2021/01/04 07:04:07;;;;;;;;;;;2.10;91.00;;;;;;5058059;28;20112;-59
2021/01/04 07:06:36;;;;;;;29.30;18.00;;;2.10;90.90;;;;;;5054329;28;19992;-58
2021/01/04 07:09:16;;;;;;;27.50;16.83;;;2.10;91.00;;;;;;5072782;28;20086;-61
2021/01/04 07:11:54;;;;;;;25.48;16.98;;;2.10;90.90;;;;;;5073421;28;20106;-59
2021/01/04 07:14:39;;;;;;;29.23;17.55;;;2.10;91.20;;;;;;5045245;28;20053;-63
2021/01/04 07:17:37;;;;;;;29.08;18.63;;;2.10;91.30;;;;;;5070245;28;20099;-61
2021/01/04 07:20:14;;;;;;;28.08;17.33;;;2.10;91.30;;;;;;5071637;28;20025;-59
2021/01/04 07:22:58;;;;;;;29.80;18.33;;;2.10;91.30;;;;;;5066462;28;20130;-60
2021/01/04 07:25:56;;;;;;;31.70;18.23;;;2.00;91.20;;;;;;5052516;28;20039;-60
2021/01/04 07:28:33;;;;;;;30.77;18.08;;;2.00;91.60;;;;;;5063561;28;20398;-58
2021/01/04 07:31:20;;;;;;;32.42;18.52;;;1.90;91.70;;;;;;5068328;28;20121;-60
2021/01/04 07:33:54;;;;;;;39.08;21.38;;;1.90;91.60;;;;;;5072337;28;20035;-57
2021/01/04 07:36:41;;;;;;;49.53;25.88;;;1.90;91.70;;;;;;5066946;28;20064;-61
2021/01/04 07:39:28;;;;;;;37.42;20.33;;;1.80;92.00;;;;;;5072317;28;20032;-59
2021/01/04 07:42:12;;;;;;;33.45;18.02;;;1.90;91.80;;;;;;5058110;28;20036;-61
2021/01/04 07:45:18;;;;;;;37.75;19.58;;;2.00;91.70;;;;;;5052216;28;20526;-60
2021/01/04 07:48:02;;;;;;;35.25;18.83;;;2.00;91.80;;;;;;5033684;28;20061;-59
2021/01/04 07:51:05;;;;;;;32.53;18.05;;;2.00;91.60;;;;;;5052256;28;20024;-61
2021/01/04 07:53:43;;;;;;;36.22;19.13;;;1.90;91.90;;;;;;5053723;28;20043;-59
2021/01/04 07:56:29;;;;;;;36.38;20.55;;;2.00;91.70;;;;;;5051865;28;20033;-61
2021/01/04 07:59:29;;;;;;;44.17;20.05;;;2.00;91.60;;;;;;5058880;28;20024;-62
2021/01/04 08:02:10;;;;;;;36.35;19.08;;;1.90;91.80;;;;;;5058414;28;20041;-61
2021/01/04 08:04:43;;;;;;;35.22;19.73;;;1.90;92.00;;;;;;5031249;28;20033;-60
2021/01/04 08:07:59;;;;;;;37.33;20.13;;;1.90;92.20;;;;;;5053896;28;20036;-60
2021/01/04 08:10:44;;;;;;;37.58;18.92;;;1.90;92.00;;;;;;5018657;28;20045;-61
2021/01/04 08:13:36;;;;;;;35.13;19.33;;;1.80;92.30;;;;;;5052334;28;20387;-60
2021/01/04 08:16:07;;;;;;;44.60;20.13;;;1.80;92.40;;;;;;5068124;28;20174;-61
2021/01/04 08:18:33;;;;;;;40.22;20.65;;;1.80;92.40;;;;;;5058240;28;20037;-61
2021/01/04 08:21:10;;;;;;;39.92;20.83;;;1.90;92.30;;;;;;5051230;28;20041;-62
2021/01/04 08:23:54;;;;;;;44.08;21.08;;;1.90;92.40;;;;;;5041959;28;20112;-59
2021/01/04 08:26:35;;;;;;;45.20;21.17;;;2.00;91.90;;;;;;5060449;28;20646;-64
2021/01/04 08:29:04;;;;;;;41.25;20.85;;;2.10;91.80;;;;;;5048190;28;20068;-61
2021/01/04 08:31:40;;;;;;;41.08;20.13;;;2.10;91.60;;;;;;5068165;28;20032;-62
2021/01/04 08:34:08;;;;;;;52.80;25.70;;;2.00;91.90;;;;;;5071039;28;20111;-61
2021/01/04 08:36:56;;;;;;;49.35;22.30;;;2.00;92.00;;;;;;5069653;28;20113;-60
2021/01/04 08:39:21;;;;;;;41.60;19.92;;;2.00;92.00;;;;;;5071501;28;20021;-60
2021/01/04 08:42:03;;;;;;;46.47;21.10;;;2.00;92.00;;;;;;5069634;28;20471;-59
2021/01/04 08:44:31;;;;;;;37.35;20.52;;;1.90;92.00;;;;;;5048981;28;20041;-61
2021/01/04 08:47:15;;;;;;;43.28;21.05;;;2.00;92.00;;;;;;5048996;28;20444;-62
2021/01/04 08:49:47;;;;;;;45.88;20.25;;;2.00;92.00;;;;;;5032856;28;20043;-63
2021/01/04 08:52:16;;;;;;;46.30;20.55;;;2.00;92.00;;;;;;5059268;28;20028;-59
2021/01/04 08:54:52;;;;;;;46.33;21.88;;;2.10;91.90;;;;;;5051515;28;20518;-61
2021/01/04 08:57:24;;;;;;;49.03;22.75;;;2.00;92.00;;;;;;5030644;28;20041;-60
2021/01/04 08:59:57;;;;;;;45.72;21.88;;;2.00;92.10;;;;;;5037707;28;20102;-62
2021/01/04 09:02:36;;;;;;;45.83;21.92;;;2.10;92.10;;;;;;5047662;28;20500;-61
2021/01/04 09:05:06;;;;;;;47.15;20.98;;;2.10;92.10;;;;;;5034262;28;20026;-62
2021/01/04 09:07:45;;;;;;;47.38;22.20;;;2.10;91.90;;;;;;5066439;28;20033;-61
2021/01/04 09:10:18;;;;;;;49.53;20.60;;;2.00;92.00;;;;;;5051637;28;20029;-61
2021/01/04 09:12:51;;;;;;;50.63;22.98;;;2.00;92.20;;;;;;5051961;28;20068;-62
2021/01/04 09:15:20;;;;;;;51.13;21.52;;;2.00;92.30;;;;;;5059693;28;20032;-60
2021/01/04 09:17:50;;;;;;;46.25;20.85;;;2.10;92.40;;;;;;5073671;28;20123;-62
2021/01/04 09:20:52;;;;;;;42.88;19.60;;;2.20;92.10;;;;;;5055758;28;20033;-60
2021/01/04 09:23:34;;;;;;;44.97;21.35;;;2.10;92.20;;;;;;5059201;28;20036;-60
2021/01/04 09:26:02;;;;;;;44.08;20.55;;;2.10;92.20;;;;;;5074370;28;20040;-63
2021/01/04 09:28:36;;;;;;;53.40;21.48;;;2.20;92.20;;;;;;5069259;28;20496;-62
2021/01/04 09:31:02;;;;;;;46.22;22.10;;;2.20;91.90;;;;;;5054462;28;20040;-62
2021/01/04 09:33:28;;;;;;;49.45;20.77;;;2.20;92.00;;;;;;5055611;28;20048;-62
2021/01/04 09:36:04;;;;;;;46.03;21.20;;;2.20;91.70;;;;;;5053549;28;20388;-63
2021/01/04 09:38:30;;;;;;;38.42;19.65;;;2.20;92.00;;;;;;5059282;28;20044;-61
2021/01/04 09:40:58;;;;;;;43.92;20.25;;;2.20;91.90;;;;;;5075183;28;20124;-61
2021/01/04 09:43:37;;;;;;;39.20;20.40;;;2.20;91.60;;;;;;5072998;28;20033;-61
2021/01/04 09:46:23;;;;;;;45.00;23.13;;;2.20;91.80;;;;;;5062851;28;20055;-60
2021/01/04 09:48:54;;;;;;;45.15;21.17;;;2.20;91.80;;;;;;5069265;28;20033;-62
2021/01/04 09:51:34;;;;;;;52.80;23.00;;;2.20;91.90;;;;;;5074976;28;20115;-62
2021/01/04 09:54:05;;;;;;;46.30;21.63;;;2.20;92.10;;;;;;5066828;28;20510;-60
2021/01/04 09:56:35;;;;;;;50.00;21.77;;;2.20;92.00;;;;;;5055855;28;20072;-61
2021/01/04 09:59:20;;;;;;;45.78;19.35;;;2.20;91.90;;;;;;5055203;28;20043;-63
2021/01/04 10:01:55;;;;;;;39.70;20.20;;;2.20;91.90;;;;;;5061945;28;20035;-60
2021/01/04 10:04:29;;;;;;;43.40;20.60;;;2.20;91.80;;;;;;5033345;28;20493;-63
2021/01/04 10:06:59;;;;;;;47.65;20.60;;;2.30;91.70;;;;;;5053575;28;20040;-62
2021/01/04 10:09:30;;;;;;;47.20;20.83;;;2.20;91.70;;;;;;5074563;28;20032;-62
2021/01/04 10:12:01;;;;;;;41.80;21.60;;;2.30;91.80;;;;;;5064082;28;20049;-62
2021/01/04 10:14:28;;;;;;;42.47;21.17;;;2.30;91.60;;;;;;5052997;28;20500;-63
2021/01/04 10:16:56;;;;;;;46.08;21.75;;;2.40;91.50;;;;;;5059799;28;20045;-62
2021/01/04 10:19:40;;;;;;;47.47;22.83;;;2.40;92.40;;;;;;5054794;28;20097;-62
2021/01/04 10:22:16;;;;;;;40.03;19.48;;;2.80;93.60;;;;;;5045729;28;20571;-58
2021/01/04 10:24:59;;;;;;;48.38;21.17;;;2.90;92.00;;;;;;5074377;28;20066;-62
2021/01/04 10:27:29;;;;;;;40.47;20.85;;;2.80;90.70;;;;;;5052076;28;20107;-59
2021/01/04 10:29:57;;;;;;;44.50;22.05;;;2.70;90.90;;;;;;5052810;28;20028;-62
2021/01/04 10:32:30;;;;;;;39.67;21.80;;;2.50;91.00;;;;;;5054223;28;20083;-59
2021/01/04 10:34:59;;;;;;;41.05;21.33;;;2.30;91.40;;;;;;5052257;28;20032;-61
2021/01/04 10:37:43;;;;;;;47.90;22.17;;;2.30;91.60;;;;;;5053423;28;20025;-61
2021/01/04 10:40:16;;;;;;;50.38;21.02;;;2.30;91.70;;;;;;5052548;28;20025;-60
2021/01/04 10:42:44;;;;;;;43.35;21.52;;;2.30;91.80;;;;;;5052485;28;20036;-60
2021/01/04 10:45:18;;;;;;;60.53;27.92;;;2.40;91.70;;;;;;5018324;28;20030;-60
2021/01/04 10:47:48;;;;;;;39.35;21.70;;;2.40;91.60;;;;;;5052005;28;20047;-61
2021/01/04 10:50:32;;;;;;;41.78;22.33;;;2.40;91.30;;;;;;5053000;28;20040;-62
2021/01/04 10:53:02;;;;;;;41.30;20.23;;;2.40;91.20;;;;;;5055719;28;20041;-61
2021/01/04 10:55:31;;;;;;;37.63;20.23;;;2.30;91.40;;;;;;5053871;28;20041;-60
2021/01/04 10:58:14;;;;;;;39.15;20.30;;;2.20;91.60;;;;;;5054220;28;20037;-59
2021/01/04 11:00:55;;;;;;;38.20;20.42;;;2.20;91.60;;;;;;5050688;28;20083;-60
2021/01/04 11:03:23;;;;;;;39.20;20.58;;;2.20;92.00;;;;;;5052951;28;20090;-60
2021/01/04 11:05:49;;;;;;;39.97;21.42;;;2.10;91.70;;;;;;5053473;28;20046;-58
2021/01/04 11:08:30;;;;;;;43.53;19.63;;;2.20;91.90;;;;;;5053441;28;20040;-61
2021/01/04 11:11:04;;;;;;;39.70;20.38;;;2.20;92.00;;;;;;5052119;28;20112;-64
2021/01/04 11:13:33;;;;;;;38.40;19.80;;;2.10;91.80;;;;;;5049164;28;20041;-61
2021/01/04 11:16:09;;;;;;;43.05;21.42;;;2.20;91.50;;;;;;5047252;28;20021;-60
2021/01/04 11:18:54;;;;;;;35.50;20.02;;;2.10;91.60;;;;;;5053090;28;20067;-61
2021/01/04 11:21:35;;;;;;;38.85;19.75;;;2.10;91.80;;;;;;5053084;28;20443;-62
2021/01/04 11:24:01;;;;;;;39.33;20.08;;;2.20;91.60;;;;;;5051842;28;20143;-62
2021/01/04 11:26:26;;;;;;;38.03;19.33;;;2.20;91.90;;;;;;5059951;28;20041;-62
2021/01/04 11:28:52;;;;;;;38.38;19.35;;;2.30;91.30;;;;;;5049509;28;20055;-62
2021/01/04 11:31:18;;;;;;;39.83;20.35;;;2.20;91.60;;;;;;5056536;28;20069;-60
2021/01/04 11:33:43;;;;;;;39.83;20.58;;;2.20;91.60;;;;;;5052436;28;20091;-62
2021/01/04 11:36:10;;;;;;;41.58;20.00;;;2.20;91.80;;;;;;5052777;28;20048;-62
2021/01/04 11:38:36;;;;;;;38.97;20.65;;;2.20;91.70;;;;;;5052723;28;20491;-61
2021/01/04 11:41:01;;;;;;;47.13;20.98;;;2.30;91.10;;;;;;5052496;28;20037;-62
2021/01/04 11:43:27;;;;;;;42.60;21.35;;;2.20;91.40;;;;;;5052507;28;20025;-60
2021/01/04 11:45:52;;;;;;;40.90;21.27;;;2.20;91.80;;;;;;5052904;28;20550;-58
2021/01/04 11:48:18;;;;;;;40.28;19.48;;;2.20;91.80;;;;;;5051018;28;20064;-59
2021/01/04 11:50:44;;;;;;;33.63;18.02;;;2.30;91.80;;;;;;5055494;28;20033;-60
2021/01/04 11:53:09;;;;;;;38.45;20.35;;;2.20;91.40;;;;;;5050809;28;20029;-59
2021/01/04 11:55:35;;;;;;;38.85;20.00;;;2.20;91.90;;;;;;5064937;28;20040;-60
2021/01/04 11:58:00;;;;;;;38.17;19.70;;;2.30;91.90;;;;;;5072005;28;20507;-58
2021/01/04 12:00:26;;;;;;;35.45;19.13;;;2.20;91.90;;;;;;5060385;28;20048;-60
2021/01/04 12:02:52;;;;;;;36.55;18.73;;;2.20;91.80;;;;;;5050550;28;20106;-60
2021/01/04 12:05:18;;;;;;;38.40;18.92;;;2.30;91.60;;;;;;5060850;28;20056;-60
2021/01/04 12:07:44;;;;;;;40.25;20.15;;;2.30;91.40;;;;;;5071445;28;20126;-60
2021/01/04 12:10:14;;;;;;;36.08;19.67;;;2.20;91.30;;;;;;5059679;28;20123;-61
2021/01/04 12:12:40;;;;;;;36.72;19.38;;;2.10;91.60;;;;;;5047796;28;20491;-61
2021/01/04 12:15:06;;;;;;;37.28;19.58;;;2.10;91.80;;;;;;5042166;28;20122;-61
2021/01/04 12:17:32;;;;;;;36.40;19.20;;;2.10;92.00;;;;;;5038259;28;20085;-61
2021/01/04 12:19:58;;;;;;;40.10;19.67;;;2.10;92.00;;;;;;5031644;28;20484;-61
2021/01/04 12:22:24;;;;;;;41.67;20.85;;;2.20;92.00;;;;;;5072036;22;20033;-60
2021/01/04 12:24:49;;;;;;;47.28;19.65;;;2.30;91.70;;;;;;5070702;28;20044;-61
2021/01/04 12:27:17;;;;;;;40.25;20.13;;;2.30;91.60;;;;;;5070133;28;20463;-61
2021/01/04 12:29:51;;;;;;;38.75;19.52;;;2.20;91.70;;;;;;5065103;28;20537;-60
2021/01/04 12:32:19;;;;;;;47.65;21.35;;;2.20;91.80;;;;;;5058475;28;20390;-61
2021/01/04 12:34:45;;;;;;;48.70;21.38;;;2.30;91.70;;;;;;5071675;28;20051;-61
2021/01/04 12:37:12;;;;;;;44.55;20.52;;;2.30;91.60;;;;;;5071692;28;20021;-61
2021/01/04 12:39:37;;;;;;;44.63;21.85;;;2.30;91.40;;;;;;5072364;28;20097;-60
2021/01/04 12:42:04;;;;;;;43.95;20.67;;;2.10;91.70;;;;;;5071022;28;20032;-60
2021/01/04 12:44:29;;;;;;;46.10;20.45;;;2.00;92.00;;;;;;5070441;28;20048;-60
2021/01/04 12:46:55;;;;;;;43.35;19.92;;;2.00;91.90;;;;;;5072431;28;20399;-59
2021/01/04 12:49:23;;;;;;;41.22;20.08;;;1.90;92.40;;;;;;5056409;28;20059;-61
2021/01/04 12:51:53;;;;;;;61.13;29.83;;;1.90;92.20;;;;;;5066075;28;20040;-62
2021/01/04 12:54:21;;;;;;;55.40;23.63;;;2.10;92.20;;;;;;5071714;28;20040;-61
2021/01/04 12:56:48;;;;;;;51.83;24.90;;;2.10;91.80;;;;;;5062121;28;20033;-61
2021/01/04 12:59:18;;;;;;;48.53;24.35;;;1.90;92.50;;;;;;5050204;28;20510;-61
2021/01/04 13:01:49;;;;;;;42.88;20.50;;;1.90;92.30;;;;;;5062434;28;20040;-60
2021/01/04 13:04:15;;;;;;;52.47;26.58;;;1.90;92.40;;;;;;5071785;28;20070;-65
2021/01/04 13:06:40;;;;;;;52.75;22.80;;;2.00;92.30;;;;;;5062938;28;20060;-61
2021/01/04 13:09:06;;;;;;;43.33;20.48;;;2.00;92.40;;;;;;5067608;28;20082;-61
2021/01/04 13:11:32;;;;;;;39.58;20.63;;;2.00;92.00;;;;;;5060168;28;20479;-61
2021/01/04 13:13:57;;;;;;;47.08;20.30;;;2.00;92.10;;;;;;5071511;28;20036;-62
2021/01/04 13:16:23;;;;;;;48.33;20.98;;;2.10;92.20;;;;;;5071133;28;20036;-63
2021/01/04 13:18:53;;;;;;;39.83;19.77;;;2.00;92.00;;;;;;5072145;28;20108;-59
2021/01/04 13:21:23;;;;;;;48.78;20.25;;;2.10;91.90;;;;;;5053848;28;20052;-60
2021/01/04 13:23:48;;;;;;;43.90;19.90;;;2.00;92.10;;;;;;5071715;28;20028;-60